sensor_id;sensor_type;location;lat;lon;timestamp;temperature;humidity
336;DHT22;156;48.738;9.228;2024-03-06T00:01:58;6.20;1.00
336;DHT22;156;48.738;9.228;2024-03-06T00:04:25;6.30;1.00
336;DHT22;156;48.738;9.228;2024-03-06T00:06:53;6.40;1.00
336;DHT22;156;48.738;9.228;2024-03-06T00:09:21;6.50;1.00
336;DHT22;156;48.738;9.228;2024-03-06T00:11:48;6.40;1.00
336;DHT22;156;48.738;9.228;2024-03-06T00:14:16;6.30;1.00
336;DHT22;156;48.738;9.228;2024-03-06T00:16:43;6.30;1.00
336;DHT22;156;48.738;9.228;2024-03-06T00:19:12;6.40;1.00
336;DHT22;156;48.738;9.228;2024-03-06T00:21:39;6.30;1.00
336;DHT22;156;48.738;9.228;2024-03-06T00:24:06;6.40;1.00
336;DHT22;156;48.738;9.228;2024-03-06T00:26:33;6.40;1.00
336;DHT22;156;48.738;9.228;2024-03-06T00:29:00;6.40;1.00
336;DHT22;156;48.738;9.228;2024-03-06T00:31:27;6.30;1.00
336;DHT22;156;48.738;9.228;2024-03-06T00:33:54;6.30;1.00
336;DHT22;156;48.738;9.228;2024-03-06T00:36:22;6.30;1.00
336;DHT22;156;48.738;9.228;2024-03-06T00:38:50;6.30;1.00
336;DHT22;156;48.738;9.228;2024-03-06T00:41:16;6.30;1.00
336;DHT22;156;48.738;9.228;2024-03-06T00:43:44;6.30;99.90
336;DHT22;156;48.738;9.228;2024-03-06T00:46:11;6.20;99.90
336;DHT22;156;48.738;9.228;2024-03-06T00:48:38;6.20;99.90
336;DHT22;156;48.738;9.228;2024-03-06T00:51:05;6.10;99.90
336;DHT22;156;48.738;9.228;2024-03-06T00:53:34;6.10;99.90
336;DHT22;156;48.738;9.228;2024-03-06T00:56:02;6.00;99.90
336;DHT22;156;48.738;9.228;2024-03-06T00:58:28;6.00;99.90
336;DHT22;156;48.738;9.228;2024-03-06T01:00:55;6.00;1.00
336;DHT22;156;48.738;9.228;2024-03-06T01:03:23;6.00;1.00
336;DHT22;156;48.738;9.228;2024-03-06T01:05:51;6.00;1.00
336;DHT22;156;48.738;9.228;2024-03-06T01:08:18;6.00;1.00
336;DHT22;156;48.738;9.228;2024-03-06T01:10:46;6.00;1.00
336;DHT22;156;48.738;9.228;2024-03-06T01:13:13;6.00;1.00
336;DHT22;156;48.738;9.228;2024-03-06T01:15:40;5.90;1.00
336;DHT22;156;48.738;9.228;2024-03-06T01:18:07;5.90;1.00
336;DHT22;156;48.738;9.228;2024-03-06T01:20:34;5.90;1.00
336;DHT22;156;48.738;9.228;2024-03-06T01:23:01;5.90;1.00
336;DHT22;156;48.738;9.228;2024-03-06T01:25:28;5.90;1.00
336;DHT22;156;48.738;9.228;2024-03-06T01:27:56;5.80;1.00
336;DHT22;156;48.738;9.228;2024-03-06T01:30:23;5.80;1.00
336;DHT22;156;48.738;9.228;2024-03-06T01:32:50;5.80;31.90
336;DHT22;156;48.738;9.228;2024-03-06T01:35:17;5.80;18.10
336;DHT22;156;48.738;9.228;2024-03-06T01:37:44;5.80;10.00
336;DHT22;156;48.738;9.228;2024-03-06T01:40:12;5.80;4.50
336;DHT22;156;48.738;9.228;2024-03-06T01:42:39;5.80;1.00
336;DHT22;156;48.738;9.228;2024-03-06T01:45:08;5.80;1.00
336;DHT22;156;48.738;9.228;2024-03-06T01:47:35;5.80;1.00
336;DHT22;156;48.738;9.228;2024-03-06T01:50:03;5.80;1.00
336;DHT22;156;48.738;9.228;2024-03-06T01:52:34;5.80;1.00
336;DHT22;156;48.738;9.228;2024-03-06T01:55:02;5.80;1.00
336;DHT22;156;48.738;9.228;2024-03-06T01:57:31;5.80;1.00
336;DHT22;156;48.738;9.228;2024-03-06T01:59:58;5.80;1.00
336;DHT22;156;48.738;9.228;2024-03-06T02:02:27;5.80;1.00
336;DHT22;156;48.738;9.228;2024-03-06T02:04:54;5.80;1.00
336;DHT22;156;48.738;9.228;2024-03-06T02:07:24;5.80;1.00
336;DHT22;156;48.738;9.228;2024-03-06T02:09:51;5.80;1.00
336;DHT22;156;48.738;9.228;2024-03-06T02:12:18;5.80;1.00
336;DHT22;156;48.738;9.228;2024-03-06T02:14:45;5.80;1.00
336;DHT22;156;48.738;9.228;2024-03-06T02:17:12;5.80;1.00
336;DHT22;156;48.738;9.228;2024-03-06T02:19:41;5.80;1.00
336;DHT22;156;48.738;9.228;2024-03-06T02:22:11;5.80;99.90
336;DHT22;156;48.738;9.228;2024-03-06T02:24:42;5.80;99.90
336;DHT22;156;48.738;9.228;2024-03-06T02:27:09;5.80;99.90
336;DHT22;156;48.738;9.228;2024-03-06T02:29:36;5.80;99.90
336;DHT22;156;48.738;9.228;2024-03-06T02:32:04;5.70;99.90
336;DHT22;156;48.738;9.228;2024-03-06T02:34:30;5.60;99.90
336;DHT22;156;48.738;9.228;2024-03-06T02:36:57;5.60;1.00
336;DHT22;156;48.738;9.228;2024-03-06T02:39:26;5.60;1.00
336;DHT22;156;48.738;9.228;2024-03-06T02:41:52;5.50;1.00
336;DHT22;156;48.738;9.228;2024-03-06T02:44:19;5.50;1.00
336;DHT22;156;48.738;9.228;2024-03-06T02:46:47;5.50;1.00
336;DHT22;156;48.738;9.228;2024-03-06T02:49:15;5.50;1.00
336;DHT22;156;48.738;9.228;2024-03-06T02:51:42;5.50;1.00
336;DHT22;156;48.738;9.228;2024-03-06T02:54:09;5.50;1.00
336;DHT22;156;48.738;9.228;2024-03-06T02:56:37;5.40;1.00
336;DHT22;156;48.738;9.228;2024-03-06T02:59:04;5.40;1.00
336;DHT22;156;48.738;9.228;2024-03-06T03:01:31;5.40;1.00
336;DHT22;156;48.738;9.228;2024-03-06T03:03:58;5.40;1.00
336;DHT22;156;48.738;9.228;2024-03-06T03:06:25;5.40;32.40
336;DHT22;156;48.738;9.228;2024-03-06T03:08:52;5.30;99.90
336;DHT22;156;48.738;9.228;2024-03-06T03:11:19;5.30;99.90
336;DHT22;156;48.738;9.228;2024-03-06T03:13:47;5.30;99.90
336;DHT22;156;48.738;9.228;2024-03-06T03:16:17;5.20;99.90
336;DHT22;156;48.738;9.228;2024-03-06T03:18:44;5.30;99.90
336;DHT22;156;48.738;9.228;2024-03-06T03:21:11;5.30;99.90
336;DHT22;156;48.738;9.228;2024-03-06T03:23:38;5.30;99.90
336;DHT22;156;48.738;9.228;2024-03-06T03:26:06;5.30;99.90
336;DHT22;156;48.738;9.228;2024-03-06T03:28:32;5.30;99.90
336;DHT22;156;48.738;9.228;2024-03-06T03:31:01;5.30;99.90
336;DHT22;156;48.738;9.228;2024-03-06T03:33:28;5.30;99.90
336;DHT22;156;48.738;9.228;2024-03-06T03:35:54;5.30;99.90
336;DHT22;156;48.738;9.228;2024-03-06T03:38:22;5.30;99.90
336;DHT22;156;48.738;9.228;2024-03-06T03:40:49;5.30;93.70
336;DHT22;156;48.738;9.228;2024-03-06T03:43:15;5.30;47.00
336;DHT22;156;48.738;9.228;2024-03-06T03:45:43;5.30;30.50
336;DHT22;156;48.738;9.228;2024-03-06T03:48:11;5.30;1.00
336;DHT22;156;48.738;9.228;2024-03-06T03:50:38;5.30;1.00
336;DHT22;156;48.738;9.228;2024-03-06T03:53:05;5.30;1.00
336;DHT22;156;48.738;9.228;2024-03-06T03:55:32;5.20;1.00
336;DHT22;156;48.738;9.228;2024-03-06T03:57:59;5.20;1.00
336;DHT22;156;48.738;9.228;2024-03-06T04:00:26;5.30;1.00
336;DHT22;156;48.738;9.228;2024-03-06T04:02:53;5.20;1.00
336;DHT22;156;48.738;9.228;2024-03-06T04:05:21;5.20;1.00
336;DHT22;156;48.738;9.228;2024-03-06T04:07:48;5.20;19.00
336;DHT22;156;48.738;9.228;2024-03-06T04:10:16;5.20;57.00
336;DHT22;156;48.738;9.228;2024-03-06T04:12:43;5.20;74.30
336;DHT22;156;48.738;9.228;2024-03-06T04:15:10;5.10;99.90
336;DHT22;156;48.738;9.228;2024-03-06T04:17:37;5.20;99.90
336;DHT22;156;48.738;9.228;2024-03-06T04:20:06;5.10;99.90
336;DHT22;156;48.738;9.228;2024-03-06T04:22:38;5.10;99.90
336;DHT22;156;48.738;9.228;2024-03-06T04:25:05;5.20;99.90
336;DHT22;156;48.738;9.228;2024-03-06T04:27:32;5.10;99.90
336;DHT22;156;48.738;9.228;2024-03-06T04:29:59;5.20;99.90
336;DHT22;156;48.738;9.228;2024-03-06T04:32:27;5.10;99.90
336;DHT22;156;48.738;9.228;2024-03-06T04:34:54;5.10;99.90
336;DHT22;156;48.738;9.228;2024-03-06T04:37:21;5.10;99.90
336;DHT22;156;48.738;9.228;2024-03-06T04:39:50;5.10;99.90
336;DHT22;156;48.738;9.228;2024-03-06T04:42:17;5.10;99.90
336;DHT22;156;48.738;9.228;2024-03-06T04:44:45;5.10;99.90
336;DHT22;156;48.738;9.228;2024-03-06T04:47:12;5.10;99.90
336;DHT22;156;48.738;9.228;2024-03-06T04:49:39;5.10;99.90
336;DHT22;156;48.738;9.228;2024-03-06T04:52:06;5.10;99.90
336;DHT22;156;48.738;9.228;2024-03-06T04:54:34;5.10;99.90
336;DHT22;156;48.738;9.228;2024-03-06T04:57:03;5.10;99.90
336;DHT22;156;48.738;9.228;2024-03-06T04:59:30;5.10;99.90
336;DHT22;156;48.738;9.228;2024-03-06T05:01:57;5.10;99.90
336;DHT22;156;48.738;9.228;2024-03-06T05:04:24;5.10;99.90
336;DHT22;156;48.738;9.228;2024-03-06T05:06:51;5.10;99.90
336;DHT22;156;48.738;9.228;2024-03-06T05:09:18;5.10;99.90
336;DHT22;156;48.738;9.228;2024-03-06T05:11:45;5.00;99.90
336;DHT22;156;48.738;9.228;2024-03-06T05:14:13;5.00;99.90
336;DHT22;156;48.738;9.228;2024-03-06T05:16:40;5.00;99.90
336;DHT22;156;48.738;9.228;2024-03-06T05:19:07;5.00;99.90
336;DHT22;156;48.738;9.228;2024-03-06T05:21:33;5.00;99.90
336;DHT22;156;48.738;9.228;2024-03-06T05:24:01;5.00;99.90
336;DHT22;156;48.738;9.228;2024-03-06T05:26:28;5.00;99.90
336;DHT22;156;48.738;9.228;2024-03-06T05:28:54;5.00;99.90
336;DHT22;156;48.738;9.228;2024-03-06T05:31:23;5.00;99.90
336;DHT22;156;48.738;9.228;2024-03-06T05:33:50;4.90;99.90
336;DHT22;156;48.738;9.228;2024-03-06T05:36:18;4.90;99.90
336;DHT22;156;48.738;9.228;2024-03-06T05:38:45;4.90;99.90
336;DHT22;156;48.738;9.228;2024-03-06T05:41:13;4.90;99.90
336;DHT22;156;48.738;9.228;2024-03-06T05:43:40;4.90;1.00
336;DHT22;156;48.738;9.228;2024-03-06T05:46:07;4.90;1.00
336;DHT22;156;48.738;9.228;2024-03-06T05:48:35;4.90;1.00
336;DHT22;156;48.738;9.228;2024-03-06T05:51:02;4.90;1.00
336;DHT22;156;48.738;9.228;2024-03-06T05:53:30;4.90;1.00
336;DHT22;156;48.738;9.228;2024-03-06T05:55:56;4.90;1.00
336;DHT22;156;48.738;9.228;2024-03-06T05:58:23;5.00;1.00
336;DHT22;156;48.738;9.228;2024-03-06T06:00:51;4.90;1.00
336;DHT22;156;48.738;9.228;2024-03-06T06:03:17;5.00;1.00
336;DHT22;156;48.738;9.228;2024-03-06T06:05:46;5.00;1.00
336;DHT22;156;48.738;9.228;2024-03-06T06:08:13;5.00;1.00
336;DHT22;156;48.738;9.228;2024-03-06T06:10:39;5.00;1.00
336;DHT22;156;48.738;9.228;2024-03-06T06:13:06;5.00;1.00
336;DHT22;156;48.738;9.228;2024-03-06T06:15:33;5.00;1.00
336;DHT22;156;48.738;9.228;2024-03-06T06:18:00;5.00;99.90
336;DHT22;156;48.738;9.228;2024-03-06T06:20:27;5.00;1.00
336;DHT22;156;48.738;9.228;2024-03-06T06:22:56;5.10;1.00
336;DHT22;156;48.738;9.228;2024-03-06T06:25:23;5.10;1.00
336;DHT22;156;48.738;9.228;2024-03-06T06:27:50;5.00;1.00
336;DHT22;156;48.738;9.228;2024-03-06T06:30:17;5.10;1.00
336;DHT22;156;48.738;9.228;2024-03-06T06:32:44;5.00;1.00
336;DHT22;156;48.738;9.228;2024-03-06T06:35:11;5.10;1.00
336;DHT22;156;48.738;9.228;2024-03-06T06:37:39;5.10;1.00
336;DHT22;156;48.738;9.228;2024-03-06T06:40:09;5.20;1.00
336;DHT22;156;48.738;9.228;2024-03-06T06:42:37;5.10;1.00
336;DHT22;156;48.738;9.228;2024-03-06T06:45:05;5.10;1.00
336;DHT22;156;48.738;9.228;2024-03-06T06:47:35;5.10;1.00
336;DHT22;156;48.738;9.228;2024-03-06T06:50:02;5.10;1.00
336;DHT22;156;48.738;9.228;2024-03-06T06:52:31;5.10;1.00
336;DHT22;156;48.738;9.228;2024-03-06T06:54:59;5.10;1.00
336;DHT22;156;48.738;9.228;2024-03-06T06:57:27;5.10;1.00
336;DHT22;156;48.738;9.228;2024-03-06T06:59:54;5.10;1.00
336;DHT22;156;48.738;9.228;2024-03-06T07:02:21;5.10;1.00
336;DHT22;156;48.738;9.228;2024-03-06T07:04:48;5.10;1.00
336;DHT22;156;48.738;9.228;2024-03-06T07:07:15;5.10;1.00
336;DHT22;156;48.738;9.228;2024-03-06T07:09:42;5.20;1.00
336;DHT22;156;48.738;9.228;2024-03-06T07:12:10;5.20;1.00
336;DHT22;156;48.738;9.228;2024-03-06T07:14:38;5.10;1.00
336;DHT22;156;48.738;9.228;2024-03-06T07:17:05;5.10;1.00
336;DHT22;156;48.738;9.228;2024-03-06T07:19:32;5.10;1.00
336;DHT22;156;48.738;9.228;2024-03-06T07:21:58;5.10;1.00
336;DHT22;156;48.738;9.228;2024-03-06T07:24:25;5.10;1.00
336;DHT22;156;48.738;9.228;2024-03-06T07:26:52;5.20;1.00
336;DHT22;156;48.738;9.228;2024-03-06T07:29:19;5.10;1.00
336;DHT22;156;48.738;9.228;2024-03-06T07:31:47;5.10;1.00
336;DHT22;156;48.738;9.228;2024-03-06T07:34:14;5.10;1.00
336;DHT22;156;48.738;9.228;2024-03-06T07:36:41;5.10;1.00
336;DHT22;156;48.738;9.228;2024-03-06T07:39:08;5.00;1.00
336;DHT22;156;48.738;9.228;2024-03-06T07:41:35;5.00;1.00
336;DHT22;156;48.738;9.228;2024-03-06T07:44:02;5.10;1.00
336;DHT22;156;48.738;9.228;2024-03-06T07:46:29;5.10;1.00
336;DHT22;156;48.738;9.228;2024-03-06T07:48:57;5.00;1.00
336;DHT22;156;48.738;9.228;2024-03-06T07:51:24;5.00;1.00
336;DHT22;156;48.738;9.228;2024-03-06T07:53:51;5.00;1.00
336;DHT22;156;48.738;9.228;2024-03-06T07:56:21;5.10;1.00
336;DHT22;156;48.738;9.228;2024-03-06T07:58:48;5.10;1.00
336;DHT22;156;48.738;9.228;2024-03-06T08:01:16;5.00;1.00
336;DHT22;156;48.738;9.228;2024-03-06T08:03:43;5.00;1.00
336;DHT22;156;48.738;9.228;2024-03-06T08:06:11;5.00;1.00
336;DHT22;156;48.738;9.228;2024-03-06T08:08:41;5.10;1.00
336;DHT22;156;48.738;9.228;2024-03-06T08:11:09;5.10;1.00
336;DHT22;156;48.738;9.228;2024-03-06T08:13:37;5.20;1.00
336;DHT22;156;48.738;9.228;2024-03-06T08:16:05;5.20;1.00
336;DHT22;156;48.738;9.228;2024-03-06T08:18:32;5.20;1.00
336;DHT22;156;48.738;9.228;2024-03-06T08:21:00;5.20;1.00
336;DHT22;156;48.738;9.228;2024-03-06T08:23:28;5.20;1.00
336;DHT22;156;48.738;9.228;2024-03-06T08:25:56;5.20;1.00
336;DHT22;156;48.738;9.228;2024-03-06T08:28:22;5.20;1.00
336;DHT22;156;48.738;9.228;2024-03-06T08:30:49;5.20;1.00
336;DHT22;156;48.738;9.228;2024-03-06T08:33:17;5.20;1.00
336;DHT22;156;48.738;9.228;2024-03-06T08:35:46;5.20;1.00
336;DHT22;156;48.738;9.228;2024-03-06T08:38:13;5.20;1.00
336;DHT22;156;48.738;9.228;2024-03-06T08:40:41;5.30;1.00
336;DHT22;156;48.738;9.228;2024-03-06T08:43:11;5.30;1.00
336;DHT22;156;48.738;9.228;2024-03-06T08:45:41;5.30;1.00
336;DHT22;156;48.738;9.228;2024-03-06T08:48:08;5.30;1.00
336;DHT22;156;48.738;9.228;2024-03-06T08:50:35;5.30;1.00
336;DHT22;156;48.738;9.228;2024-03-06T08:53:03;5.30;1.00
336;DHT22;156;48.738;9.228;2024-03-06T08:55:29;5.30;1.00
336;DHT22;156;48.738;9.228;2024-03-06T08:57:58;5.30;1.00
336;DHT22;156;48.738;9.228;2024-03-06T09:00:26;5.40;1.00
336;DHT22;156;48.738;9.228;2024-03-06T09:02:53;5.30;1.00
336;DHT22;156;48.738;9.228;2024-03-06T09:05:20;5.40;1.00
336;DHT22;156;48.738;9.228;2024-03-06T09:07:47;5.40;1.00
336;DHT22;156;48.738;9.228;2024-03-06T09:10:14;5.30;1.00
336;DHT22;156;48.738;9.228;2024-03-06T09:12:41;5.30;1.00
336;DHT22;156;48.738;9.228;2024-03-06T09:15:09;5.30;1.00
336;DHT22;156;48.738;9.228;2024-03-06T09:17:37;5.30;1.00
336;DHT22;156;48.738;9.228;2024-03-06T09:20:05;5.30;1.00
336;DHT22;156;48.738;9.228;2024-03-06T09:22:36;5.30;1.00
336;DHT22;156;48.738;9.228;2024-03-06T09:25:04;5.30;1.00
336;DHT22;156;48.738;9.228;2024-03-06T09:27:31;5.20;1.00
336;DHT22;156;48.738;9.228;2024-03-06T09:29:58;5.30;1.00
336;DHT22;156;48.738;9.228;2024-03-06T09:32:26;5.30;1.00
336;DHT22;156;48.738;9.228;2024-03-06T09:34:53;5.30;1.00
336;DHT22;156;48.738;9.228;2024-03-06T09:37:20;5.40;1.00
336;DHT22;156;48.738;9.228;2024-03-06T09:39:47;5.40;1.00
336;DHT22;156;48.738;9.228;2024-03-06T09:42:14;5.30;1.00
336;DHT22;156;48.738;9.228;2024-03-06T09:44:41;5.30;1.00
336;DHT22;156;48.738;9.228;2024-03-06T09:47:12;5.30;1.00
336;DHT22;156;48.738;9.228;2024-03-06T09:49:41;5.30;1.00
336;DHT22;156;48.738;9.228;2024-03-06T09:52:08;5.30;1.00
336;DHT22;156;48.738;9.228;2024-03-06T09:54:37;5.40;1.00
336;DHT22;156;48.738;9.228;2024-03-06T09:57:05;5.40;1.00
336;DHT22;156;48.738;9.228;2024-03-06T09:59:32;5.40;1.00
336;DHT22;156;48.738;9.228;2024-03-06T10:02:00;5.40;1.00
336;DHT22;156;48.738;9.228;2024-03-06T10:04:29;5.30;1.00
336;DHT22;156;48.738;9.228;2024-03-06T10:07:01;5.30;1.00
336;DHT22;156;48.738;9.228;2024-03-06T10:09:28;5.40;1.00
336;DHT22;156;48.738;9.228;2024-03-06T10:11:57;5.40;1.00
336;DHT22;156;48.738;9.228;2024-03-06T10:14:24;5.40;1.00
336;DHT22;156;48.738;9.228;2024-03-06T10:16:54;5.40;1.00
336;DHT22;156;48.738;9.228;2024-03-06T10:19:23;5.30;1.00
336;DHT22;156;48.738;9.228;2024-03-06T10:21:51;5.30;1.00
336;DHT22;156;48.738;9.228;2024-03-06T10:24:20;5.30;4.00
336;DHT22;156;48.738;9.228;2024-03-06T10:26:49;5.40;18.00
336;DHT22;156;48.738;9.228;2024-03-06T10:29:16;5.40;14.30
336;DHT22;156;48.738;9.228;2024-03-06T10:31:52;5.40;3.30
336;DHT22;156;48.738;9.228;2024-03-06T10:34:20;5.50;16.40
336;DHT22;156;48.738;9.228;2024-03-06T10:36:50;5.60;27.90
336;DHT22;156;48.738;9.228;2024-03-06T10:39:22;5.70;55.90
336;DHT22;156;48.738;9.228;2024-03-06T10:41:52;5.90;95.70
336;DHT22;156;48.738;9.228;2024-03-06T10:44:22;6.00;99.50
336;DHT22;156;48.738;9.228;2024-03-06T10:46:55;6.00;50.70
336;DHT22;156;48.738;9.228;2024-03-06T10:49:25;6.10;14.00
336;DHT22;156;48.738;9.228;2024-03-06T10:51:54;6.00;1.00
336;DHT22;156;48.738;9.228;2024-03-06T10:54:26;6.00;1.00
336;DHT22;156;48.738;9.228;2024-03-06T10:56:55;5.90;1.00
336;DHT22;156;48.738;9.228;2024-03-06T10:59:25;6.00;1.00
336;DHT22;156;48.738;9.228;2024-03-06T11:01:53;5.80;1.00
336;DHT22;156;48.738;9.228;2024-03-06T11:04:22;5.80;1.00
336;DHT22;156;48.738;9.228;2024-03-06T11:06:49;5.70;1.00
336;DHT22;156;48.738;9.228;2024-03-06T11:09:16;5.70;1.00
336;DHT22;156;48.738;9.228;2024-03-06T11:11:51;5.70;1.00
336;DHT22;156;48.738;9.228;2024-03-06T11:14:21;5.70;1.00
336;DHT22;156;48.738;9.228;2024-03-06T11:17:00;5.70;1.00
336;DHT22;156;48.738;9.228;2024-03-06T11:19:29;5.70;1.00
336;DHT22;156;48.738;9.228;2024-03-06T11:21:56;5.70;1.00
336;DHT22;156;48.738;9.228;2024-03-06T11:24:24;5.80;1.00
336;DHT22;156;48.738;9.228;2024-03-06T11:26:59;5.70;1.00
336;DHT22;156;48.738;9.228;2024-03-06T11:29:28;5.80;1.00
336;DHT22;156;48.738;9.228;2024-03-06T11:32:04;5.80;1.00
336;DHT22;156;48.738;9.228;2024-03-06T11:34:33;5.80;1.00
336;DHT22;156;48.738;9.228;2024-03-06T11:37:04;5.80;1.00
336;DHT22;156;48.738;9.228;2024-03-06T11:39:34;5.80;1.00
336;DHT22;156;48.738;9.228;2024-03-06T11:42:03;5.70;1.00
336;DHT22;156;48.738;9.228;2024-03-06T11:44:34;5.70;1.00
336;DHT22;156;48.738;9.228;2024-03-06T11:47:02;5.70;1.00
336;DHT22;156;48.738;9.228;2024-03-06T11:49:30;5.80;14.60
336;DHT22;156;48.738;9.228;2024-03-06T11:52:00;5.70;1.00
336;DHT22;156;48.738;9.228;2024-03-06T11:54:28;5.70;1.00
336;DHT22;156;48.738;9.228;2024-03-06T11:56:56;5.70;8.30
336;DHT22;156;48.738;9.228;2024-03-06T11:59:26;5.70;20.80
336;DHT22;156;48.738;9.228;2024-03-06T12:01:55;5.70;18.40
336;DHT22;156;48.738;9.228;2024-03-06T12:04:23;5.70;22.20
336;DHT22;156;48.738;9.228;2024-03-06T12:06:51;5.60;32.80
336;DHT22;156;48.738;9.228;2024-03-06T12:09:18;5.70;70.20
336;DHT22;156;48.738;9.228;2024-03-06T12:11:45;5.70;85.70
336;DHT22;156;48.738;9.228;2024-03-06T12:14:16;5.70;84.90
336;DHT22;156;48.738;9.228;2024-03-06T12:16:54;5.70;96.70
336;DHT22;156;48.738;9.228;2024-03-06T12:19:22;5.80;99.90
336;DHT22;156;48.738;9.228;2024-03-06T12:21:49;5.80;99.90
336;DHT22;156;48.738;9.228;2024-03-06T12:24:17;5.80;99.90
336;DHT22;156;48.738;9.228;2024-03-06T12:26:45;5.70;95.30
336;DHT22;156;48.738;9.228;2024-03-06T12:29:17;5.80;99.90
336;DHT22;156;48.738;9.228;2024-03-06T12:31:47;5.90;99.90
336;DHT22;156;48.738;9.228;2024-03-06T12:34:14;5.90;99.90
336;DHT22;156;48.738;9.228;2024-03-06T12:36:42;5.90;99.90
336;DHT22;156;48.738;9.228;2024-03-06T12:39:09;5.90;99.90
336;DHT22;156;48.738;9.228;2024-03-06T12:41:39;5.90;99.90
336;DHT22;156;48.738;9.228;2024-03-06T12:44:06;5.80;97.50
336;DHT22;156;48.738;9.228;2024-03-06T12:46:33;5.80;76.50
336;DHT22;156;48.738;9.228;2024-03-06T12:49:02;5.80;97.20
336;DHT22;156;48.738;9.228;2024-03-06T12:51:29;5.80;99.90
336;DHT22;156;48.738;9.228;2024-03-06T12:53:57;5.80;94.80
336;DHT22;156;48.738;9.228;2024-03-06T12:56:23;5.80;43.20
336;DHT22;156;48.738;9.228;2024-03-06T12:58:51;5.80;65.20
336;DHT22;156;48.738;9.228;2024-03-06T13:01:18;5.90;61.20
336;DHT22;156;48.738;9.228;2024-03-06T13:03:45;6.00;91.90
336;DHT22;156;48.738;9.228;2024-03-06T13:06:14;6.00;86.70
336;DHT22;156;48.738;9.228;2024-03-06T13:08:41;6.00;96.40
336;DHT22;156;48.738;9.228;2024-03-06T13:11:08;6.10;91.90
336;DHT22;156;48.738;9.228;2024-03-06T13:13:35;6.00;28.00
336;DHT22;156;48.738;9.228;2024-03-06T13:16:02;5.90;22.30
336;DHT22;156;48.738;9.228;2024-03-06T13:18:29;6.00;30.00
336;DHT22;156;48.738;9.228;2024-03-06T13:20:56;5.90;6.60
336;DHT22;156;48.738;9.228;2024-03-06T13:23:27;5.90;11.00
336;DHT22;156;48.738;9.228;2024-03-06T13:25:54;5.90;23.00
336;DHT22;156;48.738;9.228;2024-03-06T13:28:21;6.00;42.20
336;DHT22;156;48.738;9.228;2024-03-06T13:30:48;6.00;55.70
336;DHT22;156;48.738;9.228;2024-03-06T13:33:16;6.00;68.60
336;DHT22;156;48.738;9.228;2024-03-06T13:35:43;6.00;76.90
336;DHT22;156;48.738;9.228;2024-03-06T13:38:10;6.00;90.00
336;DHT22;156;48.738;9.228;2024-03-06T13:40:39;5.90;75.20
336;DHT22;156;48.738;9.228;2024-03-06T13:43:06;5.90;86.20
336;DHT22;156;48.738;9.228;2024-03-06T13:45:34;6.00;96.90
336;DHT22;156;48.738;9.228;2024-03-06T13:48:13;5.90;93.30
336;DHT22;156;48.738;9.228;2024-03-06T13:50:42;6.00;99.90
336;DHT22;156;48.738;9.228;2024-03-06T13:53:09;5.90;99.90
336;DHT22;156;48.738;9.228;2024-03-06T13:55:38;5.90;99.90
336;DHT22;156;48.738;9.228;2024-03-06T13:58:05;6.00;99.90
336;DHT22;156;48.738;9.228;2024-03-06T14:00:32;6.00;99.90
336;DHT22;156;48.738;9.228;2024-03-06T14:03:00;5.90;99.90
336;DHT22;156;48.738;9.228;2024-03-06T14:05:27;6.00;99.90
336;DHT22;156;48.738;9.228;2024-03-06T14:07:54;5.90;99.90
336;DHT22;156;48.738;9.228;2024-03-06T14:10:22;6.00;99.90
336;DHT22;156;48.738;9.228;2024-03-06T14:12:51;5.90;99.90
336;DHT22;156;48.738;9.228;2024-03-06T14:15:18;6.00;99.90
336;DHT22;156;48.738;9.228;2024-03-06T14:17:45;6.00;99.90
336;DHT22;156;48.738;9.228;2024-03-06T14:20:12;6.00;99.90
336;DHT22;156;48.738;9.228;2024-03-06T14:22:39;6.10;99.90
336;DHT22;156;48.738;9.228;2024-03-06T14:25:07;6.00;99.90
336;DHT22;156;48.738;9.228;2024-03-06T14:27:34;6.00;99.90
336;DHT22;156;48.738;9.228;2024-03-06T14:30:02;6.00;99.90
336;DHT22;156;48.738;9.228;2024-03-06T14:32:29;6.00;99.90
336;DHT22;156;48.738;9.228;2024-03-06T14:34:56;6.00;99.90
336;DHT22;156;48.738;9.228;2024-03-06T14:37:23;6.10;99.90
336;DHT22;156;48.738;9.228;2024-03-06T14:39:50;6.10;99.90
336;DHT22;156;48.738;9.228;2024-03-06T14:42:17;6.10;99.90
336;DHT22;156;48.738;9.228;2024-03-06T14:44:44;6.10;99.90
336;DHT22;156;48.738;9.228;2024-03-06T14:47:13;6.10;99.90
336;DHT22;156;48.738;9.228;2024-03-06T14:49:41;6.10;99.90
336;DHT22;156;48.738;9.228;2024-03-06T14:52:10;6.10;99.90
336;DHT22;156;48.738;9.228;2024-03-06T14:54:38;6.00;99.90
336;DHT22;156;48.738;9.228;2024-03-06T14:57:06;6.10;99.90
336;DHT22;156;48.738;9.228;2024-03-06T14:59:33;6.10;99.90
336;DHT22;156;48.738;9.228;2024-03-06T15:02:01;6.10;99.90
336;DHT22;156;48.738;9.228;2024-03-06T15:04:30;6.10;99.90
336;DHT22;156;48.738;9.228;2024-03-06T15:06:57;6.10;99.90
336;DHT22;156;48.738;9.228;2024-03-06T15:09:25;6.20;99.90
336;DHT22;156;48.738;9.228;2024-03-06T15:11:52;6.20;99.90
336;DHT22;156;48.738;9.228;2024-03-06T15:14:19;6.10;99.90
336;DHT22;156;48.738;9.228;2024-03-06T15:16:46;6.00;99.90
336;DHT22;156;48.738;9.228;2024-03-06T15:19:13;6.10;99.90
336;DHT22;156;48.738;9.228;2024-03-06T15:21:42;6.10;99.90
336;DHT22;156;48.738;9.228;2024-03-06T15:24:09;6.10;99.90
336;DHT22;156;48.738;9.228;2024-03-06T15:26:36;6.10;99.90
336;DHT22;156;48.738;9.228;2024-03-06T15:29:03;6.10;99.90
336;DHT22;156;48.738;9.228;2024-03-06T15:31:32;6.10;99.90
336;DHT22;156;48.738;9.228;2024-03-06T15:33:58;6.10;99.90
336;DHT22;156;48.738;9.228;2024-03-06T15:36:25;6.10;99.90
336;DHT22;156;48.738;9.228;2024-03-06T15:38:54;6.10;99.90
336;DHT22;156;48.738;9.228;2024-03-06T15:41:22;6.10;99.90
336;DHT22;156;48.738;9.228;2024-03-06T15:43:49;6.20;99.90
336;DHT22;156;48.738;9.228;2024-03-06T15:46:16;6.10;99.90
336;DHT22;156;48.738;9.228;2024-03-06T15:48:43;6.10;99.90
336;DHT22;156;48.738;9.228;2024-03-06T15:51:10;6.20;99.90
336;DHT22;156;48.738;9.228;2024-03-06T15:53:37;6.20;99.90
336;DHT22;156;48.738;9.228;2024-03-06T15:56:05;6.20;99.90
336;DHT22;156;48.738;9.228;2024-03-06T15:58:33;6.10;99.90
336;DHT22;156;48.738;9.228;2024-03-06T16:01:03;6.10;99.90
336;DHT22;156;48.738;9.228;2024-03-06T16:03:30;6.20;99.90
336;DHT22;156;48.738;9.228;2024-03-06T16:05:57;6.20;99.90
336;DHT22;156;48.738;9.228;2024-03-06T16:08:24;6.20;99.90
336;DHT22;156;48.738;9.228;2024-03-06T16:10:54;6.20;99.90
336;DHT22;156;48.738;9.228;2024-03-06T16:13:23;6.20;99.90
336;DHT22;156;48.738;9.228;2024-03-06T16:15:50;6.20;99.90
336;DHT22;156;48.738;9.228;2024-03-06T16:18:17;6.20;99.90
336;DHT22;156;48.738;9.228;2024-03-06T16:20:44;6.20;99.90
336;DHT22;156;48.738;9.228;2024-03-06T16:23:11;6.20;99.90
336;DHT22;156;48.738;9.228;2024-03-06T16:25:38;6.20;99.90
336;DHT22;156;48.738;9.228;2024-03-06T16:28:06;6.20;99.90
336;DHT22;156;48.738;9.228;2024-03-06T16:30:34;6.20;99.90
336;DHT22;156;48.738;9.228;2024-03-06T16:33:01;6.20;99.90
336;DHT22;156;48.738;9.228;2024-03-06T16:35:28;6.20;99.90
336;DHT22;156;48.738;9.228;2024-03-06T16:37:57;6.20;99.90
336;DHT22;156;48.738;9.228;2024-03-06T16:40:24;6.20;99.90
336;DHT22;156;48.738;9.228;2024-03-06T16:42:50;6.20;99.90
336;DHT22;156;48.738;9.228;2024-03-06T16:45:18;6.20;99.90
336;DHT22;156;48.738;9.228;2024-03-06T16:47:47;6.20;99.90
336;DHT22;156;48.738;9.228;2024-03-06T16:50:14;6.30;99.90
336;DHT22;156;48.738;9.228;2024-03-06T16:52:41;6.30;99.90
336;DHT22;156;48.738;9.228;2024-03-06T16:55:10;6.20;99.90
336;DHT22;156;48.738;9.228;2024-03-06T16:57:37;6.20;99.90
336;DHT22;156;48.738;9.228;2024-03-06T17:00:05;6.20;99.90
336;DHT22;156;48.738;9.228;2024-03-06T17:02:33;6.20;99.90
336;DHT22;156;48.738;9.228;2024-03-06T17:05:01;6.20;99.90